createdAt,value
2023-04-10T00:00:48.199Z,5.57
2023-04-10T00:03:25.098Z,5.58
2023-04-10T00:05:54.747Z,5.56
2023-04-10T00:08:24.439Z,5.50
2023-04-10T00:10:54.527Z,5.49
2023-04-10T00:13:22.145Z,5.44
2023-04-10T00:15:50.818Z,5.47
2023-04-10T00:18:18.495Z,5.40
2023-04-10T00:20:46.646Z,5.35
2023-04-10T00:23:14.317Z,5.31
2023-04-10T00:25:42.261Z,5.24
2023-04-10T00:28:09.998Z,5.21
2023-04-10T00:30:37.923Z,5.28
2023-04-10T00:33:05.613Z,5.35
2023-04-10T00:35:33.825Z,5.21
2023-04-10T00:38:01.773Z,5.18
2023-04-10T00:40:30.519Z,5.20
2023-04-10T00:42:58.358Z,5.11
2023-04-10T00:45:26.725Z,5.23
2023-04-10T00:47:55.848Z,5.14
2023-04-10T00:50:24.478Z,5.14
2023-04-10T00:52:53.270Z,5.09
2023-04-10T00:55:21.951Z,5.05
2023-04-10T00:57:49.638Z,5.05
2023-04-10T01:00:18.338Z,5.10
2023-04-10T01:02:47.402Z,4.95
2023-04-10T01:05:15.825Z,4.90
2023-04-10T01:08:12.317Z,4.96
2023-04-10T01:11:00.718Z,4.85
2023-04-10T01:13:36.164Z,4.87
2023-04-10T01:16:18.936Z,4.82
2023-04-10T01:19:07.212Z,4.80
2023-04-10T01:21:38.110Z,4.78
2023-04-10T01:24:27.374Z,4.78
2023-04-10T01:27:13.856Z,4.73
2023-04-10T01:29:47.841Z,4.67
2023-04-10T01:32:20.603Z,4.67
2023-04-10T01:34:55.568Z,4.59
2023-04-10T01:37:33.557Z,4.55
2023-04-10T01:40:08.357Z,4.48
2023-04-10T01:42:53.263Z,4.49
2023-04-10T01:45:29.132Z,4.45
2023-04-10T01:47:57.890Z,4.40
2023-04-10T01:50:28.649Z,4.37
2023-04-10T01:52:58.405Z,4.31
2023-04-10T01:55:28.445Z,4.22
2023-04-10T01:58:02.472Z,4.23
2023-04-10T02:00:37.798Z,4.29
2023-04-10T02:03:06.042Z,4.21
2023-04-10T02:09:10.331Z,4.15
2023-04-10T02:11:54.775Z,4.24
2023-04-10T02:14:25.064Z,4.27
2023-04-10T02:16:55.385Z,4.22
2023-04-10T02:19:26.982Z,4.22
2023-04-10T02:21:56.932Z,4.15
2023-04-10T02:24:24.790Z,4.09
2023-04-10T02:26:53.696Z,4.16
2023-04-10T02:29:21.363Z,4.11
2023-04-10T02:31:50.259Z,4.03
2023-04-10T02:34:17.961Z,4.00
2023-04-10T02:36:45.989Z,3.94
2023-04-10T02:39:13.753Z,3.90
2023-04-10T02:41:51.568Z,3.88
2023-04-10T02:44:19.383Z,3.86
2023-04-10T02:46:47.479Z,3.87
2023-04-10T02:49:17.653Z,3.89
2023-04-10T02:51:46.110Z,3.96
2023-04-10T02:54:13.852Z,3.96
2023-04-10T02:56:43.622Z,3.89
2023-04-10T02:59:11.333Z,3.85
2023-04-10T03:01:39.620Z,3.84
2023-04-10T03:04:07.694Z,3.78
2023-04-10T03:06:39.985Z,3.73
2023-04-10T03:09:08.009Z,3.81
2023-04-10T03:11:36.036Z,3.78
2023-04-10T03:14:04.570Z,3.77
2023-04-10T03:16:33.132Z,3.78
2023-04-10T03:19:06.615Z,3.73
2023-04-10T03:21:34.790Z,3.68
2023-04-10T03:24:02.776Z,3.68
2023-04-10T03:26:30.828Z,3.64
2023-04-10T03:28:58.685Z,3.63
2023-04-10T03:31:27.703Z,3.77
2023-04-10T03:33:58.676Z,3.78
2023-04-10T03:36:27.588Z,3.74
2023-04-10T03:38:55.234Z,3.79
2023-04-10T03:41:25.549Z,3.83
2023-04-10T03:43:54.012Z,3.84
2023-04-10T03:46:22.797Z,3.91
2023-04-10T03:48:54.007Z,3.92
2023-04-10T03:51:24.656Z,3.93
2023-04-10T03:53:52.733Z,3.93
2023-04-10T03:56:21.172Z,3.91
2023-04-10T03:58:48.925Z,3.97
2023-04-10T04:01:17.073Z,4.06
2023-04-10T04:04:08.662Z,4.14
2023-04-10T04:06:51.491Z,4.16
2023-04-10T04:09:29.979Z,4.22
2023-04-10T04:12:13.925Z,4.27
2023-04-10T04:14:47.549Z,4.30
2023-04-10T04:17:33.913Z,4.42
2023-04-10T04:20:07.875Z,4.43
2023-04-10T04:22:44.744Z,4.59
2023-04-10T04:25:36.480Z,4.81
2023-04-10T04:28:24.769Z,4.91
2023-04-10T04:31:05.137Z,4.98
2023-04-10T04:33:52.229Z,5.18
2023-04-10T04:36:32.718Z,5.33
2023-04-10T04:39:12.603Z,5.39
2023-04-10T04:41:55.768Z,5.58
2023-04-10T04:44:46.590Z,5.81
2023-04-10T04:47:32.957Z,6.04
2023-04-10T04:50:17.143Z,6.21
2023-04-10T04:53:14.597Z,6.72
2023-04-10T04:56:00.860Z,7.30
2023-04-10T04:58:47.245Z,7.84
2023-04-10T05:01:34.666Z,7.82
2023-04-10T05:04:18.610Z,8.21
2023-04-10T05:06:52.302Z,8.49
2023-04-10T05:09:39.600Z,8.75
2023-04-10T05:12:27.804Z,9.15
2023-04-10T05:15:01.481Z,9.46
2023-04-10T05:17:44.094Z,9.57
2023-04-10T05:20:36.363Z,9.68
2023-04-10T05:23:16.588Z,9.78
2023-04-10T05:26:16.626Z,9.89
2023-04-10T05:28:47.644Z,9.93
2023-04-10T05:31:46.596Z,10.45
2023-04-10T05:34:33.020Z,10.38
2023-04-10T05:37:13.658Z,10.64
2023-04-10T05:40:11.024Z,10.68
2023-04-10T05:43:09.702Z,11.04
2023-04-10T05:45:56.393Z,11.17
2023-04-10T05:48:49.909Z,11.76
2023-04-10T05:51:50.316Z,12.50
2023-04-10T05:54:44.218Z,13.26
2023-04-10T05:57:26.312Z,14.20
2023-04-10T06:00:09.146Z,14.60
2023-04-10T06:02:43.151Z,14.80
2023-04-10T06:05:19.922Z,15.63
2023-04-10T06:07:48.100Z,16.89
2023-04-10T06:10:16.034Z,17.95
2023-04-10T06:12:43.957Z,18.56
2023-04-10T06:15:12.425Z,18.30
2023-04-10T06:17:43.995Z,18.29
2023-04-10T06:20:12.029Z,18.76
2023-04-10T06:22:39.968Z,18.99
2023-04-10T06:25:08.213Z,18.67
2023-04-10T06:27:36.298Z,18.41
2023-04-10T06:30:05.831Z,18.60
2023-04-10T06:32:34.022Z,18.93
2023-04-10T06:35:02.654Z,19.22
2023-04-10T06:37:33.988Z,19.56
2023-04-10T06:40:09.329Z,19.60
2023-04-10T06:42:37.798Z,19.41
2023-04-10T06:45:14.016Z,18.91
2023-04-10T06:47:42.097Z,18.75
2023-04-10T06:50:10.294Z,18.29
2023-04-10T06:52:38.335Z,18.33
2023-04-10T06:55:06.547Z,18.43
2023-04-10T06:57:34.522Z,18.38
2023-04-10T07:00:02.199Z,18.68
2023-04-10T07:02:30.349Z,18.72
2023-04-10T07:04:58.197Z,19.21
2023-04-10T07:07:26.701Z,19.59
2023-04-10T07:09:54.348Z,19.58
2023-04-10T07:12:22.927Z,20.30
2023-04-10T07:14:50.613Z,21.04
2023-04-10T07:17:18.583Z,21.28
2023-04-10T07:19:46.214Z,22.54
2023-04-10T07:22:14.827Z,22.38
2023-04-10T07:24:42.609Z,22.68
2023-04-10T07:27:10.517Z,22.98
2023-04-10T07:29:38.212Z,23.23
2023-04-10T07:32:06.805Z,23.05
2023-04-10T07:34:34.527Z,23.49
2023-04-10T07:37:02.460Z,24.15
2023-04-10T07:39:30.141Z,25.23
2023-04-10T07:41:58.038Z,26.08
2023-04-10T07:44:28.645Z,26.83
2023-04-10T07:46:56.890Z,27.13
2023-04-10T07:49:24.869Z,27.44
2023-04-10T07:51:53.051Z,27.36
2023-04-10T07:54:20.813Z,28.64
2023-04-10T07:56:48.762Z,29.08
2023-04-10T07:59:16.417Z,29.04
2023-04-10T08:01:44.309Z,29.99
2023-04-10T08:04:12.255Z,29.71
2023-04-10T08:06:40.353Z,30.08
2023-04-10T08:09:07.986Z,30.33
2023-04-10T08:11:38.226Z,30.25
2023-04-10T08:14:07.258Z,30.11
2023-04-10T08:16:36.515Z,29.36
2023-04-10T08:19:04.389Z,30.06
2023-04-10T08:21:32.511Z,29.89
2023-04-10T08:24:02.824Z,29.93
2023-04-10T08:26:30.924Z,29.72
2023-04-10T08:29:00.778Z,30.61
2023-04-10T08:31:29.641Z,30.82
2023-04-10T08:33:58.073Z,30.98
2023-04-10T08:36:27.564Z,30.38
2023-04-10T08:38:55.290Z,30.51
2023-04-10T08:41:23.294Z,30.89
2023-04-10T08:43:51.416Z,30.69
2023-04-10T08:46:20.104Z,29.75
2023-04-10T08:49:02.737Z,30.04
2023-04-10T08:51:58.936Z,30.05
2023-04-10T08:54:33.264Z,30.58
2023-04-10T08:57:01.790Z,30.57
2023-04-10T08:59:30.989Z,30.53
2023-04-10T09:01:59.666Z,30.90
2023-04-10T09:04:28.069Z,30.50
2023-04-10T09:06:56.177Z,30.26
2023-04-10T09:09:23.799Z,29.92
2023-04-10T09:12:00.920Z,29.46
2023-04-10T09:14:36.487Z,30.07
2023-04-10T09:17:22.943Z,30.13
2023-04-10T09:19:56.110Z,30.27
2023-04-10T09:22:34.996Z,30.22
2023-04-10T09:25:04.032Z,30.72
2023-04-10T09:27:37.542Z,29.96
2023-04-10T09:30:07.102Z,28.39
2023-04-10T09:32:45.733Z,28.68
2023-04-10T09:35:15.582Z,28.85
2023-04-10T09:37:46.785Z,27.44
2023-04-10T09:40:25.480Z,27.59
2023-04-10T09:42:56.028Z,27.78
2023-04-10T09:45:23.696Z,27.78
2023-04-10T09:48:08.409Z,28.53
2023-04-10T09:50:43.563Z,29.00
2023-04-10T09:53:20.260Z,29.37
2023-04-10T09:55:49.423Z,29.62
2023-04-10T09:58:19.125Z,29.08
2023-04-10T10:00:49.622Z,28.56
2023-04-10T10:03:19.700Z,28.66
2023-04-10T10:05:51.854Z,28.58
2023-04-10T10:08:20.131Z,26.99
2023-04-10T10:10:54.288Z,26.80
2023-04-10T10:13:38.970Z,26.96
2023-04-10T10:16:15.634Z,27.70
2023-04-10T10:18:56.242Z,28.03
2023-04-10T10:21:26.680Z,27.14
2023-04-10T10:23:58.668Z,25.60
2023-04-10T10:26:27.101Z,23.87
2023-04-10T10:28:57.255Z,23.29
2023-04-10T10:31:32.586Z,22.93
2023-04-10T10:34:05.292Z,22.92
2023-04-10T10:36:33.635Z,22.82
2023-04-10T10:39:10.093Z,22.45
2023-04-10T10:42:23.721Z,22.19
2023-04-10T10:45:13.765Z,20.83
2023-04-10T10:47:47.485Z,20.04
2023-04-10T10:50:15.437Z,19.84
2023-04-10T10:52:43.324Z,19.70
2023-04-10T10:55:25.973Z,19.57
2023-04-10T10:57:55.604Z,19.99
2023-04-10T11:00:47.144Z,20.17
2023-04-10T11:03:14.887Z,20.24
2023-04-10T11:06:03.803Z,19.42
2023-04-10T11:08:35.395Z,19.41
2023-04-10T11:11:08.220Z,19.16
2023-04-10T11:13:41.288Z,18.97
2023-04-10T11:16:10.868Z,18.64
2023-04-10T11:18:55.826Z,18.94
2023-04-10T11:21:35.593Z,19.48
2023-04-10T11:24:05.308Z,19.97
2023-04-10T11:26:36.081Z,20.44
2023-04-10T11:29:05.643Z,20.51
2023-04-10T11:31:34.607Z,20.69
2023-04-10T11:34:10.706Z,20.57
2023-04-10T11:36:43.879Z,20.71
2023-04-10T11:39:13.388Z,20.50
2023-04-10T11:41:43.560Z,20.47
2023-04-10T11:44:17.046Z,20.24
2023-04-10T11:46:51.054Z,20.15
2023-04-10T11:49:24.249Z,19.84
2023-04-10T11:51:52.927Z,19.88
2023-04-10T11:54:25.440Z,19.94
2023-04-10T11:57:11.964Z,19.75
2023-04-10T11:59:39.734Z,19.89
2023-04-10T12:02:16.061Z,19.60
2023-04-10T12:04:44.996Z,19.86
2023-04-10T12:07:13.117Z,19.64
2023-04-10T12:09:40.992Z,19.58
2023-04-10T12:12:09.216Z,19.54
2023-04-10T12:14:40.856Z,19.48
2023-04-10T12:17:10.523Z,19.45
2023-04-10T12:19:39.605Z,19.41
2023-04-10T12:22:08.111Z,19.39
2023-04-10T12:24:51.765Z,19.54
2023-04-10T12:27:27.724Z,19.48
2023-04-10T12:29:57.644Z,19.43
2023-04-10T12:32:27.653Z,19.02
2023-04-10T12:34:57.868Z,18.97
2023-04-10T12:37:46.240Z,19.15
2023-04-10T12:40:14.710Z,19.28
2023-04-10T12:42:43.492Z,19.44
2023-04-10T12:45:14.080Z,19.17
2023-04-10T12:47:53.609Z,19.04
2023-04-10T12:50:21.455Z,18.89
2023-04-10T12:53:09.138Z,17.55
2023-04-10T12:55:37.574Z,16.60
2023-04-10T12:58:20.324Z,15.74
2023-04-10T13:00:49.222Z,15.38
2023-04-10T13:03:17.403Z,15.15
2023-04-10T13:05:46.148Z,15.06
2023-04-10T13:08:14.352Z,15.22
2023-04-10T13:10:43.569Z,15.16
2023-04-10T13:13:14.148Z,15.25
2023-04-10T13:15:42.404Z,15.37
2023-04-10T13:18:13.286Z,15.42
2023-04-10T13:20:41.891Z,15.50
2023-04-10T13:23:09.992Z,15.71
2023-04-10T13:25:40.122Z,15.64
2023-04-10T13:28:11.590Z,15.47
2023-04-10T13:30:42.796Z,15.31
2023-04-10T13:33:11.265Z,15.26
2023-04-10T13:35:40.516Z,15.12
2023-04-10T13:38:11.663Z,15.07
2023-04-10T13:40:39.347Z,15.11
2023-04-10T13:43:07.245Z,15.08
2023-04-10T13:45:35.000Z,15.12
2023-04-10T13:48:03.992Z,15.27
2023-04-10T13:50:31.928Z,15.34
2023-04-10T13:53:00.051Z,15.32
2023-04-10T13:55:27.854Z,15.43
2023-04-10T13:57:55.887Z,15.54
2023-04-10T14:00:23.633Z,15.89
2023-04-10T14:02:51.701Z,16.03
2023-04-10T14:05:19.717Z,16.14
2023-04-10T14:07:47.678Z,16.33
2023-04-10T14:10:15.400Z,16.31
2023-04-10T14:12:43.349Z,16.00
2023-04-10T14:15:11.311Z,16.00
2023-04-10T14:17:39.309Z,16.10
2023-04-10T14:20:07.819Z,16.16
2023-04-10T14:22:35.988Z,16.36
2023-04-10T14:25:12.273Z,16.48
2023-04-10T14:27:42.015Z,16.60
2023-04-10T14:30:10.685Z,16.66
2023-04-10T14:32:41.718Z,16.65
2023-04-10T14:35:10.446Z,16.75
2023-04-10T14:37:38.809Z,16.93
2023-04-10T14:40:08.030Z,17.13
2023-04-10T14:42:36.245Z,17.08
2023-04-10T14:45:05.601Z,17.19
2023-04-10T14:47:33.759Z,17.11
2023-04-10T14:50:01.430Z,17.28
2023-04-10T14:52:29.456Z,17.44
2023-04-10T14:54:57.071Z,17.70
2023-04-10T14:57:25.124Z,17.67
2023-04-10T14:59:52.726Z,17.72
2023-04-10T15:02:21.106Z,17.80
2023-04-10T15:04:48.998Z,17.93
2023-04-10T15:07:16.918Z,18.13
2023-04-10T15:09:44.681Z,18.45
2023-04-10T15:12:12.690Z,18.18
2023-04-10T15:14:40.353Z,18.56
2023-04-10T15:17:08.485Z,18.45
2023-04-10T15:19:36.142Z,18.54
2023-04-10T15:22:04.082Z,18.99
2023-04-10T15:24:37.034Z,19.22
2023-04-10T15:27:11.385Z,19.52
2023-04-10T15:29:42.896Z,19.35
2023-04-10T15:32:10.878Z,19.28
2023-04-10T15:34:38.644Z,19.25
2023-04-10T15:37:06.785Z,19.28
2023-04-10T15:39:36.883Z,19.13
2023-04-10T15:42:07.486Z,19.01
2023-04-10T15:44:35.223Z,18.48
2023-04-10T15:47:03.416Z,18.40
2023-04-10T15:49:38.038Z,18.15
2023-04-10T15:52:07.278Z,17.88
2023-04-10T15:54:35.427Z,17.71
2023-04-10T15:57:04.388Z,17.61
2023-04-10T15:59:33.543Z,17.49
2023-04-10T16:02:01.737Z,17.34
2023-04-10T16:04:30.314Z,17.23
2023-04-10T16:06:58.334Z,17.28
2023-04-10T16:09:26.708Z,17.18
2023-04-10T16:11:56.301Z,16.95
2023-04-10T16:14:24.169Z,16.85
2023-04-10T16:16:52.229Z,16.88
2023-04-10T16:19:19.902Z,16.66
2023-04-10T16:21:47.843Z,16.60
2023-04-10T16:24:15.531Z,16.49
2023-04-10T16:26:43.454Z,16.38
2023-04-10T16:29:11.124Z,16.32
2023-04-10T16:31:39.052Z,16.17
2023-04-10T16:34:06.711Z,16.07
2023-04-10T16:36:34.606Z,16.05
2023-04-10T16:39:02.260Z,15.96
2023-04-10T16:41:30.136Z,15.89
2023-04-10T16:43:57.866Z,15.70
2023-04-10T16:46:25.849Z,15.55
2023-04-10T16:48:53.883Z,15.40
2023-04-10T16:51:22.034Z,15.28
2023-04-10T16:53:49.655Z,15.02
2023-04-10T16:56:17.692Z,14.87
2023-04-10T16:58:45.836Z,14.87
2023-04-10T17:01:19.908Z,14.66
2023-04-10T17:03:48.636Z,14.61
2023-04-10T17:06:16.886Z,14.50
2023-04-10T17:08:45.690Z,14.40
2023-04-10T17:11:13.998Z,14.14
2023-04-10T17:13:42.008Z,14.02
2023-04-10T17:16:10.369Z,13.96
2023-04-10T17:18:38.136Z,13.91
2023-04-10T17:21:10.096Z,13.73
2023-04-10T17:23:37.900Z,13.53
2023-04-10T17:26:06.706Z,13.41
2023-04-10T17:28:34.542Z,13.34
2023-04-10T17:31:02.687Z,13.31
2023-04-10T17:33:30.334Z,13.36
2023-04-10T17:35:58.479Z,13.23
2023-04-10T17:38:26.156Z,13.17
2023-04-10T17:40:54.272Z,13.28
2023-04-10T17:43:22.246Z,13.29
2023-04-10T17:45:50.327Z,13.20
2023-04-10T17:48:18.459Z,13.13
2023-04-10T17:50:46.631Z,13.23
2023-04-10T17:53:14.284Z,13.10
2023-04-10T17:55:42.275Z,12.90
2023-04-10T17:58:09.882Z,12.74
2023-04-10T18:00:40.364Z,12.57
2023-04-10T18:03:08.235Z,12.45
2023-04-10T18:05:38.211Z,12.44
2023-04-10T18:08:06.403Z,12.30
2023-04-10T18:10:34.744Z,12.03
2023-04-10T18:13:02.477Z,11.79
2023-04-10T18:15:30.562Z,11.64
2023-04-10T18:17:58.315Z,11.75
2023-04-10T18:20:26.332Z,11.66
2023-04-10T18:22:53.961Z,11.54
2023-04-10T18:25:21.963Z,11.48
2023-04-10T18:28:09.632Z,11.44
2023-04-10T18:30:39.110Z,11.39
2023-04-10T18:33:10.767Z,11.38
2023-04-10T18:35:39.636Z,11.31
2023-04-10T18:38:07.440Z,11.17
2023-04-10T18:40:36.893Z,11.06
2023-04-10T18:43:04.814Z,11.06
2023-04-10T18:45:34.446Z,10.93
2023-04-10T18:48:02.789Z,10.88
2023-04-10T18:50:34.088Z,10.74
2023-04-10T18:53:01.770Z,10.58
2023-04-10T18:55:30.040Z,10.57
2023-04-10T18:57:57.733Z,10.69
2023-04-10T19:00:25.748Z,10.56
2023-04-10T19:02:55.065Z,10.42
2023-04-10T19:05:23.255Z,10.31
2023-04-10T19:08:03.135Z,10.21
2023-04-10T19:10:33.027Z,10.20
2023-04-10T19:13:00.723Z,10.18
2023-04-10T19:15:28.695Z,10.11
2023-04-10T19:17:56.533Z,9.99
2023-04-10T19:20:49.440Z,9.90
2023-04-10T19:23:13.032Z,9.77
2023-04-10T19:25:41.348Z,9.63
2023-04-10T19:28:09.137Z,9.57
2023-04-10T19:30:37.076Z,9.56
2023-04-10T19:33:04.805Z,9.42
2023-04-10T19:35:32.805Z,9.46
2023-04-10T19:38:00.431Z,9.46
2023-04-10T19:40:29.618Z,9.37
2023-04-10T19:42:59.433Z,9.52
2023-04-10T19:45:29.218Z,9.36
2023-04-10T19:47:57.657Z,9.27
2023-04-10T19:50:27.711Z,9.12
2023-04-10T19:52:55.401Z,9.17
2023-04-10T19:55:23.536Z,9.10
2023-04-10T19:57:51.288Z,9.11
2023-04-10T20:00:19.414Z,8.91
2023-04-10T20:02:47.473Z,8.75
2023-04-10T20:05:15.903Z,8.61
2023-04-10T20:07:43.719Z,8.44
2023-04-10T20:10:11.992Z,8.36
2023-04-10T20:12:39.813Z,8.26
2023-04-10T20:15:08.898Z,8.26
2023-04-10T20:17:38.572Z,8.19
2023-04-10T20:20:07.274Z,8.08
2023-04-10T20:22:34.892Z,7.95
2023-04-10T20:25:02.864Z,7.92
2023-04-10T20:27:30.710Z,7.85
2023-04-10T20:29:58.632Z,7.83
2023-04-10T20:32:26.299Z,7.72
2023-04-10T20:34:54.212Z,7.59
2023-04-10T20:37:22.841Z,7.53
2023-04-10T20:39:51.034Z,7.48
2023-04-10T20:42:18.893Z,7.45
2023-04-10T20:44:46.868Z,7.41
2023-04-10T20:47:14.868Z,7.36
2023-04-10T20:49:42.902Z,7.30
2023-04-10T20:52:10.882Z,7.31
2023-04-10T20:54:38.892Z,7.27
2023-04-10T20:57:06.586Z,7.18
2023-04-10T20:59:36.054Z,7.14
2023-04-10T21:02:03.991Z,7.11
2023-04-10T21:04:32.906Z,7.04
2023-04-10T21:07:00.692Z,6.91
2023-04-10T21:09:28.705Z,6.90
2023-04-10T21:11:57.349Z,6.90
2023-04-10T21:14:25.376Z,6.90
2023-04-10T21:16:53.124Z,6.84
2023-04-10T21:19:21.216Z,6.79
2023-04-10T21:21:48.871Z,6.72
2023-04-10T21:24:16.753Z,6.75
2023-04-10T21:26:44.479Z,6.77
2023-04-10T21:29:12.489Z,6.72
2023-04-10T21:31:40.274Z,6.71
2023-04-10T21:34:08.232Z,6.62
2023-04-10T21:36:35.948Z,6.53
2023-04-10T21:39:08.912Z,6.47
2023-04-10T21:41:39.705Z,6.40
2023-04-10T21:44:07.717Z,6.33
2023-04-10T21:46:35.436Z,6.31
2023-04-10T21:49:03.501Z,6.27
2023-04-10T21:51:31.227Z,6.21
2023-04-10T21:53:59.299Z,6.17
2023-04-10T21:56:26.887Z,6.16
2023-04-10T21:58:55.239Z,6.18
2023-04-10T22:01:23.190Z,6.22
2023-04-10T22:03:51.238Z,6.18
2023-04-10T22:06:18.856Z,6.17
2023-04-10T22:08:46.865Z,6.08
2023-04-10T22:11:14.544Z,6.08
2023-04-10T22:13:42.520Z,6.08
2023-04-10T22:16:10.443Z,6.08
2023-04-10T22:18:38.453Z,6.19
2023-04-10T22:21:06.356Z,6.16
2023-04-10T22:23:34.235Z,5.96
2023-04-10T22:26:01.856Z,5.89
2023-04-10T22:28:29.975Z,5.91
2023-04-10T22:30:57.617Z,5.92
2023-04-10T22:33:25.609Z,5.94
2023-04-10T22:35:53.737Z,5.95
2023-04-10T22:38:21.755Z,5.84
2023-04-10T22:40:49.384Z,5.73
2023-04-10T22:43:17.371Z,5.72
2023-04-10T22:45:44.993Z,5.69
2023-04-10T22:48:12.985Z,5.64
2023-04-10T22:50:40.654Z,5.64
2023-04-10T22:53:12.770Z,5.67
2023-04-10T22:55:40.991Z,5.57
2023-04-10T22:58:08.894Z,5.58
2023-04-10T23:00:36.834Z,5.58
2023-04-10T23:03:04.983Z,5.66
2023-04-10T23:05:33.154Z,5.57
2023-04-10T23:08:01.094Z,5.43
2023-04-10T23:10:28.745Z,5.36
2023-04-10T23:12:56.650Z,5.33
2023-04-10T23:15:24.304Z,5.27
2023-04-10T23:17:52.298Z,5.24
2023-04-10T23:20:20.051Z,5.20
2023-04-10T23:22:48.020Z,5.15
2023-04-10T23:25:16.137Z,5.10
2023-04-10T23:27:44.078Z,5.29
2023-04-10T23:30:11.968Z,5.25
2023-04-10T23:32:39.914Z,5.26
2023-04-10T23:35:07.914Z,5.30
2023-04-10T23:37:35.953Z,5.23
2023-04-10T23:40:04.135Z,5.13
2023-04-10T23:42:32.047Z,5.10
2023-04-10T23:44:59.742Z,5.03
2023-04-10T23:47:27.688Z,5.10
2023-04-10T23:49:56.009Z,5.04
2023-04-10T23:52:23.901Z,5.10
2023-04-10T23:54:51.644Z,5.09
2023-04-10T23:57:19.522Z,5.08
2023-04-10T23:59:47.361Z,5.19
